Latest Weather Observations for Albion Park

IDN60801

Issued at 7:35 am EST Thursday 24 July 2014 (issued every 30 minutes, with the page automatically refreshed every 10 minutes)

About weather observations | Map of weather stations | Latest weather observations for NSW | Other Formats
Station Details ID: 068241 Name: WOLLONGONG AIRPORT Lat: -34.56 Lon: 150.79 Height: 8.0 m
Data from the previous 72 hours. | See also: Recent months at Albion Park
Date/Time
EST
Temp
°C
App
Temp
°C
Dew
Point
Rel
Hum
%
Delta-T
°C
Wind Press
QNH
hPa
Press
MSL
hPa
Rain
since 9 am
mm
Dir
 
Spd
km/h
Gust
km/h
Spd
kts
Gust
kts
24/07:30am 5.1 3.6 5.0 99 0.0 W 2 7 1 4 1022.0 - 0.0
24/07:00am 4.5 3.3 4.4 99 0.0 WNW 0 4 0 2 1021.9 1021.9 0.0
24/06:30am 4.5 3.3 4.4 99 0.0 CALM 0 0 0 0 1021.7 - 0.0
24/06:00am 4.3 3.0 4.2 99 0.0 CALM 0 0 0 0 1021.3 1021.3 0.0
24/05:41am 4.0 2.3 3.9 99 0.0 W 2 6 1 3 1021.1 - 0.0
24/05:30am 3.5 0.9 3.4 99 0.0 W 6 7 3 4 1021.0 - 0.0
24/05:00am 3.8 1.3 3.7 99 0.0 WSW 6 7 3 4 1020.8 1020.8 0.0
24/04:30am 3.5 0.9 3.4 99 0.0 WSW 6 9 3 5 1021.0 - 0.0
24/04:23am 4.1 2.4 4.0 99 0.0 WSW 2 9 1 5 1021.0 - 0.0
24/04:01am 3.6 1.8 3.5 99 0.0 WSW 2 7 1 4 1020.8 - 0.0
24/04:00am 3.7 1.9 3.6 99 0.0 WSW 2 7 1 4 1020.9 1020.9 0.0
24/03:51am 4.4 3.1 4.3 99 0.0 CALM 0 0 0 0 1020.8 - 0.0
24/03:30am 5.4 4.3 5.3 99 0.0 CALM 0 0 0 0 1020.8 - 0.0
24/03:22am 4.8 3.6 4.7 99 0.0 WSW 0 0 0 0 1020.8 - 0.0
24/03:00am 6.1 5.2 6.0 99 0.0 CALM 0 0 0 0 1020.9 1020.9 0.0
24/02:30am 6.4 5.6 6.3 99 0.0 CALM 0 0 0 0 1021.1 - 0.0
24/02:00am 5.6 4.6 5.5 99 0.0 CALM 0 0 0 0 1021.2 1021.2 0.0
24/01:30am 5.7 4.7 5.6 99 0.0 CALM 0 0 0 0 1021.6 - 0.0
24/01:21am 5.6 4.6 5.5 99 0.0 CALM 0 0 0 0 1021.6 - 0.0
24/01:00am 5.5 4.4 5.2 98 0.1 CALM 0 0 0 0 1021.7 1021.7 0.0
24/12:49am 5.9 4.9 5.8 99 0.0 CALM 0 0 0 0 1021.7 - 0.0
24/12:30am 6.4 5.6 6.3 99 0.0 CALM 0 0 0 0 1021.9 - 0.0
24/12:09am 6.3 5.4 6.0 98 0.1 CALM 0 0 0 0 1022.3 - 0.0
24/12:00am 6.4 5.5 6.1 98 0.1 WSW 0 0 0 0 1022.3 1022.3 0.0
 
Date/Time
EST
Temp
°C
App
Temp
°C
Dew
Point
Rel
Hum
%
Delta-T
°C
Wind Press
QNH
hPa
Press
MSL
hPa
Rain
since 9 am
mm
Dir
 
Spd
km/h
Gust
km/h
Spd
kts
Gust
kts
23/11:49pm 6.7 5.9 6.4 98 0.1 CALM 0 0 0 0 1022.3 - 0.0
23/11:30pm 6.6 5.8 6.3 98 0.1 WSW 0 0 0 0 1022.6 - 0.0
23/11:00pm 7.4 6.7 7.0 97 0.2 CALM 0 0 0 0 1022.7 1022.7 0.0
23/10:30pm 7.8 7.2 7.2 96 0.3 CALM 0 0 0 0 1022.9 - 0.0
23/10:00pm 8.1 5.8 7.5 96 0.3 W 9 11 5 6 1023.1 1023.1 0.0
23/09:30pm 8.7 8.2 7.8 94 0.4 CALM 0 0 0 0 1023.2 - 0.0
23/09:00pm 9.3 8.9 8.1 92 0.6 CALM 0 0 0 0 1023.1 1023.1 0.0
23/08:30pm 9.9 8.4 8.5 91 0.7 W 6 7 3 4 1023.0 - 0.0
23/08:00pm 10.4 9.0 9.0 91 0.7 W 6 7 3 4 1022.9 1022.9 0.0
23/07:30pm 10.2 8.8 8.8 91 0.7 W 6 6 3 3 1022.7 - 0.0
23/07:00pm 9.9 8.3 8.7 92 0.6 W 7 7 4 4 1022.7 1022.7 0.0
23/06:30pm 10.1 8.4 8.4 89 0.8 WNW 7 7 4 4 1022.5 - 0.0
23/06:00pm 10.6 9.0 8.0 84 1.3 W 6 7 3 4 1022.4 1022.4 0.0
23/05:30pm 12.9 12.8 9.4 79 1.8 CALM 0 0 0 0 1022.2 - 0.0
23/05:00pm 14.1 12.8 9.1 72 2.5 ENE 6 9 3 5 1022.0 1022.0 0.0
23/04:30pm 15.2 12.9 9.1 67 3.1 NE 11 13 6 7 1021.8 - 0.0
23/04:00pm 15.5 12.9 9.2 66 3.2 NE 13 17 7 9 1021.8 1021.8 0.0
23/03:30pm 16.4 13.7 9.1 62 3.8 NE 13 19 7 10 1021.7 - 0.0
23/03:00pm 16.4 13.3 8.9 61 3.8 NE 15 19 8 10 1021.7 1021.7 0.0
23/02:30pm 16.4 13.3 8.9 61 3.9 ENE 15 22 8 12 1021.6 - 0.0
23/02:00pm 16.3 12.7 8.5 60 4.0 NE 17 20 9 11 1021.7 1021.7 0.0
23/01:30pm 16.8 13.7 9.0 60 4.0 NE 15 20 8 11 1021.9 - 0.0
23/01:00pm 16.8 13.6 8.5 58 4.2 NE 15 20 8 11 1022.1 1022.1 0.0
23/12:30pm 17.5 14.7 8.4 55 4.7 NE 13 19 7 10 1022.7 - 0.0
23/12:00pm 17.1 14.2 8.0 55 4.6 ENE 13 17 7 9 1023.4 1023.4 0.0
23/11:30am 16.9 14.2 7.5 54 4.7 ENE 11 15 6 8 1024.1 - 0.0
23/11:00am 17.3 15.2 8.2 55 4.6 ENE 9 15 5 8 1024.6 1024.6 0.0
23/10:30am 16.6 15.0 7.8 56 4.4 N 6 11 3 6 1025.1 - 0.0
23/10:00am 16.3 15.9 8.3 59 4.0 CALM 0 6 0 3 1025.3 1025.3 0.0
23/09:30am 14.6 14.3 8.5 67 3.1 CALM 0 0 0 0 1025.3 - 0.0
23/09:00am 12.2 11.8 9.8 85 1.2 NW 2 9 1 5 1025.3 1025.3 0.0
23/08:30am 10.3 9.2 10.0 98 0.2 WNW 6 7 3 4 1025.2 - 0.0
23/08:00am 8.0 7.1 7.9 99 0.0 W 2 6 1 3 1025.0 1025.0 0.0
23/07:30am 6.0 3.9 5.9 99 0.0 W 6 7 3 4 1024.9 - 0.0
23/07:00am 4.6 2.1 4.5 99 0.0 W 7 9 4 5 1024.6 1024.6 0.0
23/06:30am 4.1 2.8 4.0 99 0.0 CALM 0 0 0 0 1024.2 - 0.0
23/06:00am 3.8 1.7 3.7 99 0.0 WNW 4 6 2 3 1024.0 1024.0 0.0
23/05:30am 4.2 2.9 4.1 99 0.0 CALM 0 0 0 0 1023.6 - 0.0
23/05:00am 4.5 3.3 4.4 99 0.0 CALM 0 0 0 0 1023.4 1023.4 0.0
23/04:30am 4.7 2.7 4.6 99 0.0 W 4 7 2 4 1023.2 - 0.0
23/04:20am 4.7 2.4 4.6 99 0.0 W 6 7 3 4 1023.2 - 0.0
23/04:04am 4.1 1.4 3.8 98 0.1 W 7 11 4 6 1023.2 - 0.0
23/04:00am 5.1 2.6 5.0 99 0.0 W 7 9 4 5 1023.2 1023.2 0.0
23/03:30am 6.9 5.8 6.8 99 0.0 WNW 2 7 1 4 1023.2 - 0.0
23/03:00am 6.8 6.0 6.4 97 0.2 CALM 0 0 0 0 1023.4 1023.4 0.0
23/02:30am 8.0 6.7 7.7 98 0.1 NW 4 7 2 4 1023.9 - 0.0
23/02:00am 8.0 7.5 7.7 98 0.1 CALM 0 0 0 0 1024.0 1024.0 0.0
23/01:30am 8.1 7.6 7.7 97 0.2 CALM 0 0 0 0 1024.0 - 0.0
23/01:00am 8.4 6.8 7.8 96 0.3 W 6 7 3 4 1024.0 1024.0 0.0
23/12:30am 8.8 7.3 8.4 97 0.2 W 6 7 3 4 1024.1 - 0.0
23/12:00am 8.9 7.4 8.6 98 0.1 WNW 6 7 3 4 1024.3 1024.3 0.0
 
Date/Time
EST
Temp
°C
App
Temp
°C
Dew
Point
Rel
Hum
%
Delta-T
°C
Wind Press
QNH
hPa
Press
MSL
hPa
Rain
since 9 am
mm
Dir
 
Spd
km/h
Gust
km/h
Spd
kts
Gust
kts
22/11:30pm 8.3 7.8 7.9 97 0.2 CALM 0 2 0 1 1024.4 - 0.0
22/11:00pm 8.5 6.9 8.2 98 0.1 W 6 7 3 4 1024.4 1024.4 0.0
22/10:30pm 8.4 6.8 8.1 98 0.1 W 6 7 3 4 1024.4 - 0.0
22/10:00pm 8.4 7.6 8.1 98 0.1 W 2 7 1 4 1024.4 1024.4 0.0
22/09:30pm 8.3 6.5 8.0 98 0.1 W 7 9 4 5 1024.4 - 0.0
22/09:00pm 8.1 6.8 7.5 96 0.3 WNW 4 6 2 3 1024.4 1024.4 0.0
22/08:30pm 8.4 7.1 7.8 96 0.3 W 4 7 2 4 1024.4 - 0.0
22/08:00pm 9.4 8.0 8.9 97 0.2 W 6 7 3 4 1024.4 1024.4 0.0
22/07:30pm 8.9 6.5 8.5 97 0.2 W 11 13 6 7 1024.4 - 0.0
22/07:00pm 8.5 6.4 8.1 97 0.2 W 9 11 5 6 1024.2 1024.2 0.0
22/06:30pm 8.7 6.9 7.8 94 0.4 S 7 9 4 5 1023.9 - 0.0
22/06:00pm 10.1 8.5 8.7 91 0.7 S 7 9 4 5 1023.6 1023.6 0.0
22/05:30pm 12.0 10.6 9.6 85 1.2 SSE 7 9 4 5 1023.3 - 0.0
22/05:00pm 13.7 12.6 10.5 81 1.7 SE 7 9 4 5 1023.1 1023.1 0.0
22/04:30pm 14.4 12.7 10.0 75 2.3 ESE 9 13 5 7 1022.9 - 0.0
22/04:00pm 15.1 13.0 9.7 70 2.8 ESE 11 15 6 8 1022.7 1022.7 0.0
22/03:30pm 16.4 14.3 9.8 65 3.5 ESE 11 15 6 8 1022.5 - 0.0
22/03:00pm 16.5 14.1 10.1 66 3.4 E 13 17 7 9 1022.3 1022.3 0.0
22/02:30pm 15.8 13.2 9.5 66 3.3 E 13 20 7 11 1022.3 - 0.0
22/02:00pm 16.2 14.0 9.2 63 3.6 ESE 11 15 6 8 1022.4 1022.4 0.0
22/01:30pm 17.6 15.5 9.8 60 4.1 SE 11 17 6 9 1022.4 - 0.0
22/01:00pm 17.4 15.7 9.8 61 4.0 ESE 9 15 5 8 1022.6 1022.6 0.0
22/12:30pm 16.8 14.0 10.0 64 3.6 E 15 19 8 10 1023.1 - 0.0
22/12:00pm 16.8 14.4 10.0 64 3.6 E 13 17 7 9 1023.6 1023.6 0.0
22/11:30am 16.8 14.9 10.4 66 3.4 NE 11 13 6 7 1024.1 - 0.0
22/11:00am 16.3 14.6 9.7 65 3.4 NE 9 11 5 6 1024.4 1024.4 0.0
22/10:30am 16.5 15.0 10.4 67 3.2 SSE 9 13 5 7 1024.7 - 0.0
22/10:12am 16.4 15.3 10.0 66 3.4 SSW 6 7 3 4 1024.8 - 0.0
22/10:00am 15.9 15.6 10.0 68 3.1 SSW 2 7 1 4 1024.9 1024.9 0.0
22/09:47am 15.0 14.9 9.4 69 2.9 CALM 0 0 0 0 1025.0 - 0.0
22/09:30am 13.0 13.1 10.2 83 1.4 CALM 0 0 0 0 1025.0 - 0.0
22/09:00am 11.3 11.3 9.7 90 0.8 CALM 0 0 0 0 1024.8 1024.8 0.0
22/08:30am 9.2 9.0 9.1 99 0.0 CALM 0 0 0 0 1024.7 - 0.0
22/08:00am 6.8 5.3 6.7 99 0.0 SSW 4 6 2 3 1024.5 1024.5 0.0
22/07:30am 5.2 2.8 5.1 99 0.0 SSW 7 9 4 5 1024.2 - 0.0
22/07:27am 5.1 2.8 5.0 99 0.0 SSW 6 7 3 4 1024.2 - 0.0
22/07:07am 5.2 3.3 5.1 99 0.0 SSW 4 6 2 3 1024.1 - 0.0
22/07:00am 4.9 2.6 4.8 99 0.0 SSW 6 9 3 5 1024.1 1024.1 0.0
22/06:30am 6.0 3.7 5.9 99 0.0 SSW 7 9 4 5 1023.9 - 0.0
22/06:00am 6.4 5.2 6.3 99 0.0 SSW 2 6 1 3 1023.7 1023.7 0.0
22/05:30am 7.2 6.1 7.1 99 0.0 SSW 2 6 1 3 1023.5 - 0.0
22/05:00am 7.2 6.5 7.1 99 0.0 CALM 0 7 0 4 1023.2 1023.2 0.0
22/04:30am 7.3 6.7 7.2 99 0.0 CALM 0 0 0 0 1023.1 - 0.0
22/04:00am 7.2 5.4 7.1 99 0.0 SSW 6 9 3 5 1023.2 1023.2 0.0
22/03:30am 6.3 4.3 6.2 99 0.0 SSW 6 7 3 4 1023.2 - 0.0
22/03:00am 6.5 5.7 6.4 99 0.0 CALM 0 0 0 0 1023.2 1023.2 0.0
22/02:30am 6.7 5.2 6.6 99 0.0 SSW 4 6 2 3 1023.3 - 0.0
22/02:00am 7.2 6.5 7.1 99 0.0 CALM 0 0 0 0 1023.4 1023.4 0.0
22/01:30am 7.3 6.7 7.2 99 0.0 CALM 0 0 0 0 1023.7 - 0.0
22/01:00am 6.4 4.2 6.3 99 0.0 SSW 7 9 4 5 1023.8 1023.8 0.0
22/12:30am 6.1 4.0 6.0 99 0.0 SSW 6 7 3 4 1024.0 - 0.0
22/12:00am 6.2 4.2 6.1 99 0.0 SSW 6 6 3 3 1024.1 1024.1 0.0
 
Date/Time
EST
Temp
°C
App
Temp
°C
Dew
Point
Rel
Hum
%
Delta-T
°C
Wind Press
QNH
hPa
Press
MSL
hPa
Rain
since 9 am
mm
Dir
 
Spd
km/h
Gust
km/h
Spd
kts
Gust
kts
21/11:30pm 5.8 3.5 5.5 98 0.1 SSW 7 9 4 5 1024.3 - 0.0
21/11:00pm 6.9 5.0 6.5 97 0.2 SSW 6 6 3 3 1024.4 1024.4 0.0
21/10:30pm 7.5 5.6 6.9 96 0.3 SSW 6 7 3 4 1024.6 - 0.0
21/10:00pm 8.0 6.0 7.1 94 0.4 SSW 7 7 4 4 1024.7 1024.7 0.0
21/09:30pm 8.2 7.7 7.8 97 0.2 CALM 0 0 0 0 1024.7 - 0.0
21/09:00pm 8.1 5.5 7.8 98 0.1 SSW 11 13 6 7 1024.6 1024.6 0.0
21/08:30pm 7.3 5.4 6.6 95 0.3 SSW 6 7 3 4 1024.7 - 0.0
21/08:00pm 8.2 6.3 7.4 95 0.4 SSW 7 9 4 5 1024.7 1024.7 0.0
21/07:30pm 8.3 6.3 6.9 91 0.6 SSW 7 9 4 5 1024.6 - 0.0
21/07:00pm 8.7 6.3 7.2 90 0.7 S 9 11 5 6 1024.4 1024.4 0.0
21/06:30pm 9.3 7.4 7.6 89 0.8 S 7 9 4 5 1024.2 - 0.0
21/06:00pm 10.6 9.0 8.7 88 0.9 S 7 9 4 5 1024.1 1024.1 0.0
21/05:30pm 12.9 12.4 9.5 80 1.7 S 2 7 1 4 1023.9 - 0.0
21/05:00pm 13.2 11.4 9.6 79 1.8 S 9 13 5 7 1023.8 1023.8 0.0
21/04:30pm 14.4 13.1 9.8 74 2.4 S 7 11 4 6 1023.8 - 0.0
21/04:00pm 14.9 12.5 8.8 67 3.1 ESE 11 19 6 10 1023.6 1023.6 0.0
21/03:30pm 15.3 12.1 8.3 63 3.5 SE 15 20 8 11 1023.4 - 0.0
21/03:00pm 16.0 12.9 8.7 62 3.7 SE 15 22 8 12 1023.3 1023.3 0.0
21/02:30pm 16.0 12.2 9.0 63 3.6 ESE 19 24 10 13 1023.4 - 0.0
21/02:00pm 16.5 13.4 8.7 60 4.0 ESE 15 20 8 11 1023.4 1023.4 0.0
21/01:30pm 16.5 13.7 8.5 59 4.1 E 13 20 7 11 1023.5 - 0.0
21/01:00pm 17.4 14.7 8.8 57 4.4 E 13 24 7 13 1023.8 1023.8 0.0
21/12:30pm 16.1 14.2 7.6 57 4.2 W 7 11 4 6 1024.4 - 0.0
21/12:00pm 16.6 14.3 7.5 55 4.5 W 9 13 5 7 1024.8 1024.8 0.0
21/11:30am 16.2 13.8 7.2 55 4.5 W 9 13 5 7 1025.4 - 0.0
21/11:00am 15.3 13.7 8.1 62 3.6 W 6 7 3 4 1026.0 1026.0 0.0
21/10:30am 14.1 13.8 8.5 69 2.8 CALM 0 4 0 2 1026.3 - 0.0
21/10:00am 12.6 11.1 9.1 79 1.8 W 7 11 4 6 1026.5 1026.5 0.0
21/09:30am 10.8 10.4 8.4 85 1.2 CALM 0 0 0 0 1026.6 - 0.0
21/09:00am 9.2 8.6 7.2 87 0.9 CALM 0 0 0 0 1026.7 1026.7 0.0
21/08:30am 7.5 6.7 6.6 94 0.4 CALM 0 0 0 0 1026.6 - 0.0
21/08:00am 5.9 4.9 5.8 99 0.0 CALM 0 0 0 0 1026.5 1026.5 0.0

Other Formats:

Comma delimited format used in spreadsheet applications
http://www.bom.gov.au/fwo/IDN60801/IDN60801.95748.axf

JavaScript Object Notation format (JSON) in row-major order
http://www.bom.gov.au/fwo/IDN60801/IDN60801.95748.json